sensor_id;sensor_type;location;lat;lon;timestamp;P1;durP1;ratioP1;P2;durP2;ratioP2
33814;SDS011;20121;51.910;8.406;2023-07-31T00:00:24;1.30;;;1.00;;
33814;SDS011;20121;51.910;8.406;2023-07-31T00:02:50;2.10;;;1.90;;
33814;SDS011;20121;51.910;8.406;2023-07-31T00:05:17;1.55;;;1.45;;
33814;SDS011;20121;51.910;8.406;2023-07-31T00:07:42;1.50;;;1.40;;
33814;SDS011;20121;51.910;8.406;2023-07-31T00:10:08;1.90;;;1.50;;
33814;SDS011;20121;51.910;8.406;2023-07-31T00:12:34;2.22;;;1.50;;
33814;SDS011;20121;51.910;8.406;2023-07-31T00:15:00;1.97;;;1.63;;
33814;SDS011;20121;51.910;8.406;2023-07-31T00:17:26;2.63;;;1.17;;
33814;SDS011;20121;51.910;8.406;2023-07-31T00:19:51;5.90;;;3.37;;
33814;SDS011;20121;51.910;8.406;2023-07-31T00:22:17;1.97;;;1.53;;
33814;SDS011;20121;51.910;8.406;2023-07-31T00:24:42;2.37;;;1.90;;
33814;SDS011;20121;51.910;8.406;2023-07-31T00:27:08;1.90;;;1.53;;
33814;SDS011;20121;51.910;8.406;2023-07-31T00:29:34;1.63;;;1.50;;
33814;SDS011;20121;51.910;8.406;2023-07-31T00:31:59;2.27;;;1.60;;
33814;SDS011;20121;51.910;8.406;2023-07-31T00:34:25;1.70;;;1.40;;
33814;SDS011;20121;51.910;8.406;2023-07-31T00:36:51;1.70;;;1.40;;
33814;SDS011;20121;51.910;8.406;2023-07-31T00:39:17;9.80;;;5.70;;
33814;SDS011;20121;51.910;8.406;2023-07-31T00:41:42;1.80;;;1.63;;
33814;SDS011;20121;51.910;8.406;2023-07-31T00:44:08;1.80;;;1.53;;
33814;SDS011;20121;51.910;8.406;2023-07-31T00:46:33;2.20;;;1.67;;
33814;SDS011;20121;51.910;8.406;2023-07-31T00:48:59;2.30;;;2.10;;
33814;SDS011;20121;51.910;8.406;2023-07-31T00:51:25;1.77;;;1.25;;
33814;SDS011;20121;51.910;8.406;2023-07-31T00:53:51;1.47;;;1.23;;
33814;SDS011;20121;51.910;8.406;2023-07-31T00:56:19;1.45;;;1.20;;
33814;SDS011;20121;51.910;8.406;2023-07-31T00:58:44;2.00;;;1.80;;
33814;SDS011;20121;51.910;8.406;2023-07-31T01:01:10;1.90;;;1.40;;
33814;SDS011;20121;51.910;8.406;2023-07-31T01:03:36;3.87;;;1.73;;
33814;SDS011;20121;51.910;8.406;2023-07-31T01:06:06;4.50;;;1.73;;
33814;SDS011;20121;51.910;8.406;2023-07-31T01:08:58;2.30;;;1.80;;
33814;SDS011;20121;51.910;8.406;2023-07-31T01:11:38;1.88;;;1.45;;
33814;SDS011;20121;51.910;8.406;2023-07-31T01:14:11;2.33;;;1.92;;
33814;SDS011;20121;51.910;8.406;2023-07-31T01:16:37;2.27;;;1.87;;
33814;SDS011;20121;51.910;8.406;2023-07-31T01:19:02;4.03;;;2.83;;
33814;SDS011;20121;51.910;8.406;2023-07-31T01:24:15;2.20;;;1.58;;
33814;SDS011;20121;51.910;8.406;2023-07-31T01:26:47;3.25;;;1.60;;
33814;SDS011;20121;51.910;8.406;2023-07-31T01:29:23;5.50;;;2.30;;
33814;SDS011;20121;51.910;8.406;2023-07-31T01:31:57;1.60;;;1.42;;
33814;SDS011;20121;51.910;8.406;2023-07-31T01:34:26;2.05;;;1.65;;
33814;SDS011;20121;51.910;8.406;2023-07-31T01:36:53;1.83;;;1.45;;
33814;SDS011;20121;51.910;8.406;2023-07-31T01:39:19;2.70;;;1.80;;
33814;SDS011;20121;51.910;8.406;2023-07-31T01:41:45;1.20;;;1.10;;
33814;SDS011;20121;51.910;8.406;2023-07-31T01:44:11;1.70;;;1.60;;
33814;SDS011;20121;51.910;8.406;2023-07-31T01:46:37;1.50;;;1.40;;
33814;SDS011;20121;51.910;8.406;2023-07-31T01:49:02;1.80;;;1.63;;
33814;SDS011;20121;51.910;8.406;2023-07-31T01:51:30;3.33;;;1.92;;
33814;SDS011;20121;51.910;8.406;2023-07-31T01:53:59;3.92;;;1.45;;
33814;SDS011;20121;51.910;8.406;2023-07-31T01:56:25;1.50;;;1.30;;
33814;SDS011;20121;51.910;8.406;2023-07-31T01:58:50;2.10;;;1.53;;
33814;SDS011;20121;51.910;8.406;2023-07-31T02:01:16;2.97;;;1.67;;
33814;SDS011;20121;51.910;8.406;2023-07-31T02:03:42;2.63;;;1.67;;
33814;SDS011;20121;51.910;8.406;2023-07-31T02:06:07;1.70;;;1.37;;
33814;SDS011;20121;51.910;8.406;2023-07-31T02:08:33;2.13;;;1.80;;
33814;SDS011;20121;51.910;8.406;2023-07-31T02:10:58;1.50;;;1.30;;
33814;SDS011;20121;51.910;8.406;2023-07-31T02:13:24;2.10;;;1.43;;
33814;SDS011;20121;51.910;8.406;2023-07-31T02:15:49;1.30;;;1.10;;
33814;SDS011;20121;51.910;8.406;2023-07-31T02:18:15;2.90;;;1.70;;
33814;SDS011;20121;51.910;8.406;2023-07-31T02:20:41;2.50;;;1.57;;
33814;SDS011;20121;51.910;8.406;2023-07-31T02:23:07;1.43;;;1.33;;
33814;SDS011;20121;51.910;8.406;2023-07-31T02:25:32;1.57;;;1.47;;
33814;SDS011;20121;51.910;8.406;2023-07-31T02:27:58;2.20;;;1.30;;
33814;SDS011;20121;51.910;8.406;2023-07-31T02:30:24;3.43;;;1.77;;
33814;SDS011;20121;51.910;8.406;2023-07-31T02:32:49;2.20;;;1.40;;
33814;SDS011;20121;51.910;8.406;2023-07-31T02:35:15;2.17;;;1.80;;
33814;SDS011;20121;51.910;8.406;2023-07-31T02:37:41;2.73;;;1.63;;
33814;SDS011;20121;51.910;8.406;2023-07-31T02:40:07;2.50;;;1.40;;
33814;SDS011;20121;51.910;8.406;2023-07-31T02:42:33;1.70;;;1.33;;
33814;SDS011;20121;51.910;8.406;2023-07-31T02:44:59;2.33;;;1.53;;
33814;SDS011;20121;51.910;8.406;2023-07-31T02:47:24;1.47;;;1.37;;
33814;SDS011;20121;51.910;8.406;2023-07-31T02:49:50;5.60;;;4.00;;
33814;SDS011;20121;51.910;8.406;2023-07-31T02:52:15;2.17;;;1.80;;
33814;SDS011;20121;51.910;8.406;2023-07-31T02:54:41;4.10;;;2.33;;
33814;SDS011;20121;51.910;8.406;2023-07-31T02:57:07;2.90;;;2.17;;
33814;SDS011;20121;51.910;8.406;2023-07-31T02:59:32;5.17;;;2.63;;
33814;SDS011;20121;51.910;8.406;2023-07-31T03:01:58;3.93;;;3.50;;
33814;SDS011;20121;51.910;8.406;2023-07-31T03:04:23;2.27;;;1.93;;
33814;SDS011;20121;51.910;8.406;2023-07-31T03:06:49;5.10;;;3.20;;
33814;SDS011;20121;51.910;8.406;2023-07-31T03:09:15;5.00;;;3.57;;
33814;SDS011;20121;51.910;8.406;2023-07-31T03:11:40;4.60;;;2.87;;
33814;SDS011;20121;51.910;8.406;2023-07-31T03:14:06;3.47;;;2.80;;
33814;SDS011;20121;51.910;8.406;2023-07-31T03:16:32;4.43;;;3.47;;
33814;SDS011;20121;51.910;8.406;2023-07-31T03:18:57;9.70;;;5.13;;
33814;SDS011;20121;51.910;8.406;2023-07-31T03:21:23;6.80;;;4.50;;
33814;SDS011;20121;51.910;8.406;2023-07-31T03:23:49;7.27;;;5.07;;
33814;SDS011;20121;51.910;8.406;2023-07-31T03:26:14;6.37;;;4.17;;
33814;SDS011;20121;51.910;8.406;2023-07-31T03:28:40;4.93;;;3.40;;
33814;SDS011;20121;51.910;8.406;2023-07-31T03:31:05;11.20;;;5.37;;
33814;SDS011;20121;51.910;8.406;2023-07-31T03:33:33;5.53;;;4.53;;
33814;SDS011;20121;51.910;8.406;2023-07-31T03:35:58;4.20;;;3.80;;
33814;SDS011;20121;51.910;8.406;2023-07-31T03:38:24;5.40;;;4.33;;
33814;SDS011;20121;51.910;8.406;2023-07-31T03:40:50;9.50;;;3.77;;
33814;SDS011;20121;51.910;8.406;2023-07-31T03:43:15;9.67;;;5.47;;
33814;SDS011;20121;51.910;8.406;2023-07-31T03:45:41;6.90;;;4.07;;
33814;SDS011;20121;51.910;8.406;2023-07-31T03:48:07;8.90;;;3.77;;
33814;SDS011;20121;51.910;8.406;2023-07-31T03:50:33;9.03;;;4.87;;
33814;SDS011;20121;51.910;8.406;2023-07-31T03:52:58;8.20;;;4.57;;
33814;SDS011;20121;51.910;8.406;2023-07-31T03:55:24;8.03;;;4.00;;
33814;SDS011;20121;51.910;8.406;2023-07-31T03:57:49;8.53;;;4.60;;
33814;SDS011;20121;51.910;8.406;2023-07-31T04:00:15;3.20;;;2.90;;
33814;SDS011;20121;51.910;8.406;2023-07-31T04:02:41;7.30;;;4.23;;
33814;SDS011;20121;51.910;8.406;2023-07-31T04:05:07;8.90;;;4.43;;
33814;SDS011;20121;51.910;8.406;2023-07-31T04:07:33;6.90;;;3.63;;
33814;SDS011;20121;51.910;8.406;2023-07-31T04:09:59;4.40;;;3.53;;
33814;SDS011;20121;51.910;8.406;2023-07-31T04:12:25;12.95;;;3.72;;
33814;SDS011;20121;51.910;8.406;2023-07-31T04:14:50;4.67;;;4.17;;
33814;SDS011;20121;51.910;8.406;2023-07-31T04:17:17;5.00;;;3.87;;
33814;SDS011;20121;51.910;8.406;2023-07-31T04:19:43;8.82;;;4.03;;
33814;SDS011;20121;51.910;8.406;2023-07-31T04:22:09;27.93;;;4.50;;
33814;SDS011;20121;51.910;8.406;2023-07-31T04:24:34;5.10;;;3.53;;
33814;SDS011;20121;51.910;8.406;2023-07-31T04:27:00;7.10;;;5.20;;
33814;SDS011;20121;51.910;8.406;2023-07-31T04:29:25;4.43;;;3.47;;
33814;SDS011;20121;51.910;8.406;2023-07-31T04:31:51;5.20;;;4.70;;
33814;SDS011;20121;51.910;8.406;2023-07-31T04:34:17;6.03;;;3.50;;
33814;SDS011;20121;51.910;8.406;2023-07-31T04:36:42;8.23;;;3.53;;
33814;SDS011;20121;51.910;8.406;2023-07-31T04:39:08;12.80;;;3.83;;
33814;SDS011;20121;51.910;8.406;2023-07-31T04:41:33;6.07;;;4.17;;
33814;SDS011;20121;51.910;8.406;2023-07-31T04:43:59;6.33;;;4.00;;
33814;SDS011;20121;51.910;8.406;2023-07-31T04:46:25;5.77;;;3.47;;
33814;SDS011;20121;51.910;8.406;2023-07-31T04:48:50;5.23;;;4.40;;
33814;SDS011;20121;51.910;8.406;2023-07-31T04:51:16;7.10;;;3.00;;
33814;SDS011;20121;51.910;8.406;2023-07-31T04:53:41;4.63;;;3.23;;
33814;SDS011;20121;51.910;8.406;2023-07-31T04:56:07;7.90;;;3.13;;
33814;SDS011;20121;51.910;8.406;2023-07-31T04:58:33;8.10;;;3.53;;
33814;SDS011;20121;51.910;8.406;2023-07-31T05:00:58;6.30;;;3.63;;
33814;SDS011;20121;51.910;8.406;2023-07-31T05:03:24;8.53;;;3.83;;
33814;SDS011;20121;51.910;8.406;2023-07-31T05:05:50;6.23;;;3.10;;
33814;SDS011;20121;51.910;8.406;2023-07-31T05:08:16;6.70;;;5.27;;
33814;SDS011;20121;51.910;8.406;2023-07-31T05:10:42;6.68;;;3.58;;
33814;SDS011;20121;51.910;8.406;2023-07-31T05:13:08;2.92;;;2.60;;
33814;SDS011;20121;51.910;8.406;2023-07-31T05:15:34;5.20;;;3.20;;
33814;SDS011;20121;51.910;8.406;2023-07-31T05:17:59;4.57;;;3.30;;
33814;SDS011;20121;51.910;8.406;2023-07-31T05:20:25;2.90;;;2.60;;
33814;SDS011;20121;51.910;8.406;2023-07-31T05:22:51;8.00;;;2.90;;
33814;SDS011;20121;51.910;8.406;2023-07-31T05:25:17;4.00;;;3.42;;
33814;SDS011;20121;51.910;8.406;2023-07-31T05:27:42;8.53;;;2.90;;
33814;SDS011;20121;51.910;8.406;2023-07-31T05:30:08;4.70;;;2.50;;
33814;SDS011;20121;51.910;8.406;2023-07-31T05:32:34;4.00;;;3.37;;
33814;SDS011;20121;51.910;8.406;2023-07-31T05:34:59;7.40;;;2.83;;
33814;SDS011;20121;51.910;8.406;2023-07-31T05:37:25;3.20;;;2.90;;
33814;SDS011;20121;51.910;8.406;2023-07-31T05:39:51;10.50;;;3.00;;
33814;SDS011;20121;51.910;8.406;2023-07-31T05:42:17;3.08;;;2.78;;
33814;SDS011;20121;51.910;8.406;2023-07-31T05:44:42;6.93;;;3.20;;
33814;SDS011;20121;51.910;8.406;2023-07-31T05:47:08;5.13;;;3.03;;
33814;SDS011;20121;51.910;8.406;2023-07-31T05:49:34;3.93;;;2.57;;
33814;SDS011;20121;51.910;8.406;2023-07-31T05:52:00;3.73;;;2.90;;
33814;SDS011;20121;51.910;8.406;2023-07-31T05:54:26;3.40;;;2.50;;
33814;SDS011;20121;51.910;8.406;2023-07-31T05:56:51;9.77;;;3.33;;
33814;SDS011;20121;51.910;8.406;2023-07-31T05:59:17;4.23;;;2.10;;
33814;SDS011;20121;51.910;8.406;2023-07-31T06:01:43;3.03;;;2.10;;
33814;SDS011;20121;51.910;8.406;2023-07-31T06:04:08;12.53;;;3.10;;
33814;SDS011;20121;51.910;8.406;2023-07-31T06:06:34;8.53;;;2.77;;
33814;SDS011;20121;51.910;8.406;2023-07-31T06:09:00;2.80;;;2.27;;
33814;SDS011;20121;51.910;8.406;2023-07-31T06:11:25;9.97;;;3.80;;
33814;SDS011;20121;51.910;8.406;2023-07-31T06:13:51;5.50;;;2.77;;
33814;SDS011;20121;51.910;8.406;2023-07-31T06:16:16;8.90;;;2.80;;
33814;SDS011;20121;51.910;8.406;2023-07-31T06:18:42;3.47;;;3.03;;
33814;SDS011;20121;51.910;8.406;2023-07-31T06:21:08;5.10;;;3.10;;
33814;SDS011;20121;51.910;8.406;2023-07-31T06:23:35;8.90;;;2.45;;
33814;SDS011;20121;51.910;8.406;2023-07-31T06:26:00;3.77;;;2.33;;
33814;SDS011;20121;51.910;8.406;2023-07-31T06:28:29;2.93;;;1.93;;
33814;SDS011;20121;51.910;8.406;2023-07-31T06:30:56;4.57;;;2.97;;
33814;SDS011;20121;51.910;8.406;2023-07-31T06:33:25;3.25;;;2.72;;
33814;SDS011;20121;51.910;8.406;2023-07-31T06:35:52;3.03;;;2.05;;
33814;SDS011;20121;51.910;8.406;2023-07-31T06:38:24;4.80;;;3.60;;
33814;SDS011;20121;51.910;8.406;2023-07-31T06:40:50;3.90;;;3.05;;
33814;SDS011;20121;51.910;8.406;2023-07-31T06:43:16;3.33;;;2.10;;
33814;SDS011;20121;51.910;8.406;2023-07-31T06:45:42;4.13;;;2.90;;
33814;SDS011;20121;51.910;8.406;2023-07-31T06:48:07;8.13;;;1.67;;
33814;SDS011;20121;51.910;8.406;2023-07-31T06:50:33;3.80;;;2.97;;
33814;SDS011;20121;51.910;8.406;2023-07-31T06:52:58;3.17;;;1.70;;
33814;SDS011;20121;51.910;8.406;2023-07-31T06:55:25;5.10;;;2.47;;
33814;SDS011;20121;51.910;8.406;2023-07-31T06:57:52;3.70;;;2.50;;
33814;SDS011;20121;51.910;8.406;2023-07-31T07:00:20;4.85;;;2.28;;
33814;SDS011;20121;51.910;8.406;2023-07-31T07:02:46;5.32;;;2.00;;
33814;SDS011;20121;51.910;8.406;2023-07-31T07:05:12;3.80;;;2.67;;
33814;SDS011;20121;51.910;8.406;2023-07-31T07:07:39;3.90;;;1.73;;
33814;SDS011;20121;51.910;8.406;2023-07-31T07:10:05;4.38;;;3.22;;
33814;SDS011;20121;51.910;8.406;2023-07-31T07:12:32;3.83;;;2.30;;
33814;SDS011;20121;51.910;8.406;2023-07-31T07:14:58;5.00;;;2.45;;
33814;SDS011;20121;51.910;8.406;2023-07-31T07:17:24;4.03;;;2.75;;
33814;SDS011;20121;51.910;8.406;2023-07-31T07:19:56;5.68;;;3.25;;
33814;SDS011;20121;51.910;8.406;2023-07-31T07:22:22;2.00;;;1.77;;
33814;SDS011;20121;51.910;8.406;2023-07-31T07:24:49;10.40;;;2.28;;
33814;SDS011;20121;51.910;8.406;2023-07-31T07:27:14;6.50;;;1.93;;
33814;SDS011;20121;51.910;8.406;2023-07-31T07:29:40;5.33;;;2.30;;
33814;SDS011;20121;51.910;8.406;2023-07-31T07:32:06;3.50;;;2.20;;
33814;SDS011;20121;51.910;8.406;2023-07-31T07:34:31;5.47;;;3.30;;
33814;SDS011;20121;51.910;8.406;2023-07-31T07:36:57;3.23;;;2.10;;
33814;SDS011;20121;51.910;8.406;2023-07-31T07:39:23;3.97;;;2.70;;
33814;SDS011;20121;51.910;8.406;2023-07-31T07:41:48;2.20;;;2.00;;
33814;SDS011;20121;51.910;8.406;2023-07-31T07:44:14;3.00;;;2.70;;
33814;SDS011;20121;51.910;8.406;2023-07-31T07:46:40;6.13;;;2.17;;
33814;SDS011;20121;51.910;8.406;2023-07-31T07:49:05;2.65;;;2.00;;
33814;SDS011;20121;51.910;8.406;2023-07-31T07:51:31;4.80;;;2.80;;
33814;SDS011;20121;51.910;8.406;2023-07-31T07:54:00;1.90;;;1.80;;
33814;SDS011;20121;51.910;8.406;2023-07-31T07:56:26;1.95;;;1.85;;
33814;SDS011;20121;51.910;8.406;2023-07-31T07:58:52;5.25;;;3.72;;
33814;SDS011;20121;51.910;8.406;2023-07-31T08:01:18;3.22;;;2.50;;
33814;SDS011;20121;51.910;8.406;2023-07-31T08:03:44;2.23;;;1.80;;
33814;SDS011;20121;51.910;8.406;2023-07-31T08:06:10;4.70;;;2.37;;
33814;SDS011;20121;51.910;8.406;2023-07-31T08:08:36;3.33;;;2.20;;
33814;SDS011;20121;51.910;8.406;2023-07-31T08:11:02;2.42;;;2.22;;
33814;SDS011;20121;51.910;8.406;2023-07-31T08:13:28;2.67;;;2.00;;
33814;SDS011;20121;51.910;8.406;2023-07-31T08:15:53;5.10;;;3.20;;
33814;SDS011;20121;51.910;8.406;2023-07-31T08:18:19;4.93;;;2.17;;
33814;SDS011;20121;51.910;8.406;2023-07-31T08:20:45;5.43;;;3.25;;
33814;SDS011;20121;51.910;8.406;2023-07-31T08:23:11;4.70;;;2.78;;
33814;SDS011;20121;51.910;8.406;2023-07-31T08:25:37;4.67;;;3.00;;
33814;SDS011;20121;51.910;8.406;2023-07-31T08:28:03;3.75;;;3.08;;
33814;SDS011;20121;51.910;8.406;2023-07-31T08:30:30;4.85;;;3.65;;
33814;SDS011;20121;51.910;8.406;2023-07-31T08:32:55;2.60;;;2.10;;
33814;SDS011;20121;51.910;8.406;2023-07-31T08:35:22;3.80;;;2.70;;
33814;SDS011;20121;51.910;8.406;2023-07-31T08:37:49;3.58;;;2.63;;
33814;SDS011;20121;51.910;8.406;2023-07-31T08:40:15;3.23;;;2.93;;
33814;SDS011;20121;51.910;8.406;2023-07-31T08:42:47;7.97;;;3.23;;
33814;SDS011;20121;51.910;8.406;2023-07-31T08:45:16;5.32;;;3.40;;
33814;SDS011;20121;51.910;8.406;2023-07-31T08:47:46;4.97;;;2.95;;
33814;SDS011;20121;51.910;8.406;2023-07-31T08:50:14;6.35;;;3.42;;
33814;SDS011;20121;51.910;8.406;2023-07-31T08:52:41;3.90;;;2.75;;
33814;SDS011;20121;51.910;8.406;2023-07-31T08:55:07;3.67;;;2.40;;
33814;SDS011;20121;51.910;8.406;2023-07-31T08:57:34;2.20;;;1.90;;
33814;SDS011;20121;51.910;8.406;2023-07-31T09:00:02;4.68;;;2.63;;
33814;SDS011;20121;51.910;8.406;2023-07-31T09:02:30;5.90;;;2.25;;
33814;SDS011;20121;51.910;8.406;2023-07-31T09:05:05;3.08;;;2.25;;
33814;SDS011;20121;51.910;8.406;2023-07-31T09:07:32;5.30;;;3.05;;
33814;SDS011;20121;51.910;8.406;2023-07-31T09:10:00;4.10;;;2.92;;
33814;SDS011;20121;51.910;8.406;2023-07-31T09:12:25;5.23;;;2.33;;
33814;SDS011;20121;51.910;8.406;2023-07-31T09:14:51;3.33;;;2.43;;
33814;SDS011;20121;51.910;8.406;2023-07-31T09:17:28;2.70;;;2.17;;
33814;SDS011;20121;51.910;8.406;2023-07-31T09:19:57;4.32;;;3.10;;
33814;SDS011;20121;51.910;8.406;2023-07-31T09:22:37;6.78;;;2.25;;
33814;SDS011;20121;51.910;8.406;2023-07-31T09:30:13;3.43;;;2.37;;
33814;SDS011;20121;51.910;8.406;2023-07-31T09:32:39;3.00;;;2.40;;
33814;SDS011;20121;51.910;8.406;2023-07-31T09:38:00;3.63;;;2.55;;
33814;SDS011;20121;51.910;8.406;2023-07-31T09:40:31;3.15;;;2.00;;
33814;SDS011;20121;51.910;8.406;2023-07-31T09:42:59;2.75;;;2.15;;
33814;SDS011;20121;51.910;8.406;2023-07-31T09:45:26;11.45;;;2.80;;
33814;SDS011;20121;51.910;8.406;2023-07-31T09:47:53;2.08;;;1.92;;
33814;SDS011;20121;51.910;8.406;2023-07-31T09:50:22;3.17;;;2.50;;
33814;SDS011;20121;51.910;8.406;2023-07-31T09:52:49;2.72;;;2.13;;
33814;SDS011;20121;51.910;8.406;2023-07-31T09:55:16;3.65;;;2.70;;
33814;SDS011;20121;51.910;8.406;2023-07-31T09:57:43;3.33;;;2.13;;
33814;SDS011;20121;51.910;8.406;2023-07-31T10:00:11;3.40;;;2.20;;
33814;SDS011;20121;51.910;8.406;2023-07-31T10:02:38;4.57;;;2.15;;
33814;SDS011;20121;51.910;8.406;2023-07-31T10:05:05;3.22;;;1.63;;
33814;SDS011;20121;51.910;8.406;2023-07-31T10:07:36;2.55;;;2.00;;
33814;SDS011;20121;51.910;8.406;2023-07-31T10:10:04;2.63;;;2.42;;
33814;SDS011;20121;51.910;8.406;2023-07-31T10:12:32;4.10;;;2.30;;
33814;SDS011;20121;51.910;8.406;2023-07-31T10:14:59;2.25;;;1.90;;
33814;SDS011;20121;51.910;8.406;2023-07-31T10:17:26;2.72;;;1.70;;
33814;SDS011;20121;51.910;8.406;2023-07-31T10:19:52;2.85;;;1.50;;
33814;SDS011;20121;51.910;8.406;2023-07-31T10:22:19;4.45;;;2.42;;
33814;SDS011;20121;51.910;8.406;2023-07-31T10:24:46;2.13;;;1.92;;
33814;SDS011;20121;51.910;8.406;2023-07-31T10:27:13;3.17;;;2.03;;
33814;SDS011;20121;51.910;8.406;2023-07-31T10:29:40;1.57;;;1.47;;
33814;SDS011;20121;51.910;8.406;2023-07-31T10:32:08;2.45;;;1.50;;
33814;SDS011;20121;51.910;8.406;2023-07-31T10:34:36;1.98;;;1.73;;
33814;SDS011;20121;51.910;8.406;2023-07-31T10:37:20;1.65;;;1.50;;
33814;SDS011;20121;51.910;8.406;2023-07-31T10:40:00;2.30;;;1.65;;
33814;SDS011;20121;51.910;8.406;2023-07-31T10:42:48;2.38;;;1.70;;
33814;SDS011;20121;51.910;8.406;2023-07-31T10:47:59;1.60;;;1.35;;
33814;SDS011;20121;51.910;8.406;2023-07-31T10:50:30;1.23;;;1.10;;
33814;SDS011;20121;51.910;8.406;2023-07-31T10:53:00;1.70;;;1.52;;
33814;SDS011;20121;51.910;8.406;2023-07-31T10:57:57;2.65;;;1.30;;
33814;SDS011;20121;51.910;8.406;2023-07-31T11:00:30;1.77;;;1.67;;
33814;SDS011;20121;51.910;8.406;2023-07-31T11:03:17;2.17;;;1.23;;
33814;SDS011;20121;51.910;8.406;2023-07-31T11:05:52;1.80;;;1.65;;
33814;SDS011;20121;51.910;8.406;2023-07-31T11:10:47;1.30;;;1.20;;
33814;SDS011;20121;51.910;8.406;2023-07-31T11:13:33;2.38;;;2.17;;
33814;SDS011;20121;51.910;8.406;2023-07-31T11:16:05;2.45;;;1.52;;
33814;SDS011;20121;51.910;8.406;2023-07-31T11:18:30;1.57;;;1.40;;
33814;SDS011;20121;51.910;8.406;2023-07-31T11:20:56;2.40;;;1.77;;
33814;SDS011;20121;51.910;8.406;2023-07-31T11:23:22;2.10;;;1.40;;
33814;SDS011;20121;51.910;8.406;2023-07-31T11:25:48;2.38;;;1.65;;
33814;SDS011;20121;51.910;8.406;2023-07-31T11:28:16;1.35;;;1.20;;
33814;SDS011;20121;51.910;8.406;2023-07-31T11:30:43;2.17;;;1.98;;
33814;SDS011;20121;51.910;8.406;2023-07-31T11:33:10;2.47;;;1.40;;
33814;SDS011;20121;51.910;8.406;2023-07-31T11:35:44;3.25;;;1.52;;
33814;SDS011;20121;51.910;8.406;2023-07-31T11:38:12;2.10;;;1.75;;
33814;SDS011;20121;51.910;8.406;2023-07-31T11:40:49;2.00;;;1.80;;
33814;SDS011;20121;51.910;8.406;2023-07-31T11:43:17;1.40;;;1.20;;
33814;SDS011;20121;51.910;8.406;2023-07-31T11:45:56;1.88;;;1.65;;
33814;SDS011;20121;51.910;8.406;2023-07-31T11:48:24;3.85;;;2.05;;
33814;SDS011;20121;51.910;8.406;2023-07-31T11:50:52;2.88;;;2.30;;
33814;SDS011;20121;51.910;8.406;2023-07-31T11:53:30;1.65;;;1.55;;
33814;SDS011;20121;51.910;8.406;2023-07-31T11:56:00;3.30;;;1.58;;
33814;SDS011;20121;51.910;8.406;2023-07-31T11:58:29;1.95;;;1.75;;
33814;SDS011;20121;51.910;8.406;2023-07-31T12:00:56;5.57;;;3.20;;
33814;SDS011;20121;51.910;8.406;2023-07-31T12:03:23;1.50;;;1.38;;
33814;SDS011;20121;51.910;8.406;2023-07-31T12:05:49;2.35;;;1.60;;
33814;SDS011;20121;51.910;8.406;2023-07-31T12:08:15;2.20;;;1.93;;
33814;SDS011;20121;51.910;8.406;2023-07-31T12:10:41;2.00;;;1.73;;
33814;SDS011;20121;51.910;8.406;2023-07-31T12:13:11;1.80;;;1.70;;
33814;SDS011;20121;51.910;8.406;2023-07-31T12:15:44;2.40;;;1.58;;
33814;SDS011;20121;51.910;8.406;2023-07-31T12:18:11;1.50;;;1.20;;
33814;SDS011;20121;51.910;8.406;2023-07-31T12:20:42;1.10;;;1.00;;
33814;SDS011;20121;51.910;8.406;2023-07-31T12:23:15;1.48;;;1.20;;
33814;SDS011;20121;51.910;8.406;2023-07-31T12:25:43;1.30;;;1.20;;
33814;SDS011;20121;51.910;8.406;2023-07-31T12:28:09;1.60;;;1.50;;
33814;SDS011;20121;51.910;8.406;2023-07-31T12:30:39;1.45;;;1.23;;
33814;SDS011;20121;51.910;8.406;2023-07-31T12:33:06;1.40;;;1.30;;
33814;SDS011;20121;51.910;8.406;2023-07-31T12:35:37;1.40;;;1.30;;
33814;SDS011;20121;51.910;8.406;2023-07-31T12:38:05;3.55;;;2.72;;
33814;SDS011;20121;51.910;8.406;2023-07-31T12:40:31;1.43;;;1.33;;
33814;SDS011;20121;51.910;8.406;2023-07-31T12:42:57;2.35;;;1.52;;
33814;SDS011;20121;51.910;8.406;2023-07-31T12:45:23;1.30;;;1.20;;
33814;SDS011;20121;51.910;8.406;2023-07-31T12:47:48;2.53;;;1.80;;
33814;SDS011;20121;51.910;8.406;2023-07-31T12:50:15;1.45;;;1.10;;
33814;SDS011;20121;51.910;8.406;2023-07-31T12:52:40;2.47;;;1.60;;
33814;SDS011;20121;51.910;8.406;2023-07-31T12:55:06;1.60;;;1.30;;
33814;SDS011;20121;51.910;8.406;2023-07-31T12:57:32;2.30;;;1.35;;
33814;SDS011;20121;51.910;8.406;2023-07-31T12:59:58;3.00;;;2.30;;
33814;SDS011;20121;51.910;8.406;2023-07-31T13:02:23;2.00;;;1.90;;
33814;SDS011;20121;51.910;8.406;2023-07-31T13:04:49;1.67;;;1.33;;
33814;SDS011;20121;51.910;8.406;2023-07-31T13:07:15;3.40;;;2.33;;
33814;SDS011;20121;51.910;8.406;2023-07-31T13:09:41;6.27;;;2.50;;
33814;SDS011;20121;51.910;8.406;2023-07-31T13:12:07;2.20;;;1.83;;
33814;SDS011;20121;51.910;8.406;2023-07-31T13:14:33;2.13;;;1.90;;
33814;SDS011;20121;51.910;8.406;2023-07-31T13:16:59;2.27;;;1.93;;
33814;SDS011;20121;51.910;8.406;2023-07-31T13:19:24;3.17;;;1.83;;
33814;SDS011;20121;51.910;8.406;2023-07-31T13:21:50;1.90;;;1.70;;
33814;SDS011;20121;51.910;8.406;2023-07-31T13:24:15;3.10;;;2.47;;
33814;SDS011;20121;51.910;8.406;2023-07-31T13:26:41;2.63;;;2.07;;
33814;SDS011;20121;51.910;8.406;2023-07-31T13:29:07;3.60;;;2.87;;
33814;SDS011;20121;51.910;8.406;2023-07-31T13:31:32;3.60;;;2.23;;
33814;SDS011;20121;51.910;8.406;2023-07-31T13:33:58;2.50;;;1.77;;
33814;SDS011;20121;51.910;8.406;2023-07-31T13:36:23;2.00;;;1.80;;
33814;SDS011;20121;51.910;8.406;2023-07-31T13:38:49;1.90;;;1.70;;
33814;SDS011;20121;51.910;8.406;2023-07-31T13:41:15;5.30;;;2.43;;
33814;SDS011;20121;51.910;8.406;2023-07-31T13:43:40;1.87;;;1.77;;
33814;SDS011;20121;51.910;8.406;2023-07-31T13:46:06;4.43;;;1.90;;
33814;SDS011;20121;51.910;8.406;2023-07-31T13:48:35;2.90;;;2.17;;
33814;SDS011;20121;51.910;8.406;2023-07-31T13:51:01;2.00;;;1.77;;
33814;SDS011;20121;51.910;8.406;2023-07-31T13:53:27;2.83;;;1.90;;
33814;SDS011;20121;51.910;8.406;2023-07-31T13:55:52;1.90;;;1.80;;
33814;SDS011;20121;51.910;8.406;2023-07-31T13:58:18;2.27;;;1.90;;
33814;SDS011;20121;51.910;8.406;2023-07-31T14:00:44;2.43;;;1.73;;
33814;SDS011;20121;51.910;8.406;2023-07-31T14:03:09;7.43;;;1.60;;
33814;SDS011;20121;51.910;8.406;2023-07-31T14:05:35;2.13;;;1.77;;
33814;SDS011;20121;51.910;8.406;2023-07-31T14:08:01;1.50;;;1.40;;
33814;SDS011;20121;51.910;8.406;2023-07-31T14:10:26;2.13;;;1.87;;
33814;SDS011;20121;51.910;8.406;2023-07-31T14:12:52;2.03;;;1.60;;
33814;SDS011;20121;51.910;8.406;2023-07-31T14:15:17;2.97;;;1.83;;
33814;SDS011;20121;51.910;8.406;2023-07-31T14:17:43;2.60;;;1.80;;
33814;SDS011;20121;51.910;8.406;2023-07-31T14:20:09;2.37;;;1.80;;
33814;SDS011;20121;51.910;8.406;2023-07-31T14:22:36;2.17;;;1.70;;
33814;SDS011;20121;51.910;8.406;2023-07-31T14:25:02;2.50;;;1.50;;
33814;SDS011;20121;51.910;8.406;2023-07-31T14:27:28;1.63;;;1.50;;
33814;SDS011;20121;51.910;8.406;2023-07-31T14:29:54;1.93;;;1.77;;
33814;SDS011;20121;51.910;8.406;2023-07-31T14:32:20;2.60;;;1.83;;
33814;SDS011;20121;51.910;8.406;2023-07-31T14:34:48;1.52;;;1.40;;
33814;SDS011;20121;51.910;8.406;2023-07-31T14:37:14;1.70;;;1.60;;
33814;SDS011;20121;51.910;8.406;2023-07-31T14:39:39;2.60;;;1.70;;
33814;SDS011;20121;51.910;8.406;2023-07-31T14:42:05;2.67;;;1.35;;
33814;SDS011;20121;51.910;8.406;2023-07-31T14:44:31;1.87;;;1.67;;
33814;SDS011;20121;51.910;8.406;2023-07-31T14:46:57;2.50;;;1.27;;
33814;SDS011;20121;51.910;8.406;2023-07-31T14:49:22;2.10;;;1.80;;
33814;SDS011;20121;51.910;8.406;2023-07-31T14:51:48;1.80;;;1.67;;
33814;SDS011;20121;51.910;8.406;2023-07-31T14:54:13;2.17;;;1.77;;
33814;SDS011;20121;51.910;8.406;2023-07-31T14:56:39;2.30;;;1.73;;
33814;SDS011;20121;51.910;8.406;2023-07-31T14:59:04;1.70;;;1.60;;
33814;SDS011;20121;51.910;8.406;2023-07-31T15:01:30;1.83;;;1.73;;
33814;SDS011;20121;51.910;8.406;2023-07-31T15:03:56;2.70;;;1.30;;